sensor_id;sensor_type;location;lat;lon;timestamp;P1;durP1;ratioP1;P2;durP2;ratioP2
39698;SDS011;25372;50.582;12.250;2023-10-31T00:09:02;9.93;;;3.15;;
39698;SDS011;25372;50.582;12.250;2023-10-31T00:19:24;4.30;;;3.17;;
39698;SDS011;25372;50.582;12.250;2023-10-31T00:29:46;8.43;;;3.25;;
39698;SDS011;25372;50.582;12.250;2023-10-31T00:40:08;5.55;;;3.35;;
39698;SDS011;25372;50.582;12.250;2023-10-31T00:50:30;6.10;;;4.03;;
39698;SDS011;25372;50.582;12.250;2023-10-31T01:00:52;3.95;;;3.25;;
39698;SDS011;25372;50.582;12.250;2023-10-31T01:11:15;7.23;;;3.50;;
39698;SDS011;25372;50.582;12.250;2023-10-31T01:21:38;4.18;;;3.33;;
39698;SDS011;25372;50.582;12.250;2023-10-31T01:31:58;5.15;;;3.33;;
39698;SDS011;25372;50.582;12.250;2023-10-31T01:42:21;6.40;;;4.18;;
39698;SDS011;25372;50.582;12.250;2023-10-31T01:52:41;10.15;;;3.88;;
39698;SDS011;25372;50.582;12.250;2023-10-31T02:03:03;8.02;;;4.45;;
39698;SDS011;25372;50.582;12.250;2023-10-31T02:13:25;4.75;;;3.75;;
39698;SDS011;25372;50.582;12.250;2023-10-31T02:23:56;8.10;;;4.35;;
39698;SDS011;25372;50.582;12.250;2023-10-31T02:34:17;7.70;;;5.47;;
39698;SDS011;25372;50.582;12.250;2023-10-31T02:44:40;12.23;;;5.68;;
39698;SDS011;25372;50.582;12.250;2023-10-31T02:55:01;13.30;;;5.72;;
39698;SDS011;25372;50.582;12.250;2023-10-31T03:05:23;14.00;;;6.88;;
39698;SDS011;25372;50.582;12.250;2023-10-31T03:15:44;10.97;;;6.87;;
39698;SDS011;25372;50.582;12.250;2023-10-31T03:26:07;18.23;;;7.70;;
39698;SDS011;25372;50.582;12.250;2023-10-31T03:36:28;10.32;;;5.63;;
39698;SDS011;25372;50.582;12.250;2023-10-31T03:46:51;6.18;;;4.03;;
39698;SDS011;25372;50.582;12.250;2023-10-31T03:57:12;6.30;;;3.80;;
39698;SDS011;25372;50.582;12.250;2023-10-31T04:07:35;7.38;;;3.50;;
39698;SDS011;25372;50.582;12.250;2023-10-31T04:17:57;5.22;;;3.30;;
39698;SDS011;25372;50.582;12.250;2023-10-31T04:28:19;6.30;;;3.63;;
39698;SDS011;25372;50.582;12.250;2023-10-31T04:38:40;4.63;;;3.10;;
39698;SDS011;25372;50.582;12.250;2023-10-31T04:49:02;3.80;;;2.40;;
39698;SDS011;25372;50.582;12.250;2023-10-31T04:59:23;2.05;;;1.67;;
39698;SDS011;25372;50.582;12.250;2023-10-31T05:09:45;1.80;;;1.50;;
39698;SDS011;25372;50.582;12.250;2023-10-31T05:20:06;2.22;;;1.30;;
39698;SDS011;25372;50.582;12.250;2023-10-31T05:30:29;1.17;;;1.02;;
39698;SDS011;25372;50.582;12.250;2023-10-31T05:40:50;1.50;;;1.10;;
39698;SDS011;25372;50.582;12.250;2023-10-31T05:51:13;0.90;;;0.90;;
39698;SDS011;25372;50.582;12.250;2023-10-31T06:01:34;2.20;;;1.17;;
39698;SDS011;25372;50.582;12.250;2023-10-31T06:11:56;0.60;;;0.60;;
39698;SDS011;25372;50.582;12.250;2023-10-31T06:22:17;0.80;;;0.80;;
39698;SDS011;25372;50.582;12.250;2023-10-31T06:32:39;0.85;;;0.70;;
39698;SDS011;25372;50.582;12.250;2023-10-31T06:43:00;0.63;;;0.63;;
39698;SDS011;25372;50.582;12.250;2023-10-31T06:53:23;1.05;;;0.40;;
39698;SDS011;25372;50.582;12.250;2023-10-31T07:03:43;0.75;;;0.75;;
39698;SDS011;25372;50.582;12.250;2023-10-31T07:14:06;0.60;;;0.60;;
39698;SDS011;25372;50.582;12.250;2023-10-31T07:24:26;0.50;;;0.50;;
39698;SDS011;25372;50.582;12.250;2023-10-31T07:34:48;0.35;;;0.32;;
39698;SDS011;25372;50.582;12.250;2023-10-31T07:45:09;0.40;;;0.40;;
39698;SDS011;25372;50.582;12.250;2023-10-31T07:55:32;0.40;;;0.40;;
39698;SDS011;25372;50.582;12.250;2023-10-31T08:05:53;0.50;;;0.50;;
39698;SDS011;25372;50.582;12.250;2023-10-31T08:16:18;1.17;;;0.50;;
39698;SDS011;25372;50.582;12.250;2023-10-31T08:26:39;1.40;;;0.50;;
39698;SDS011;25372;50.582;12.250;2023-10-31T08:37:01;0.50;;;0.50;;
39698;SDS011;25372;50.582;12.250;2023-10-31T08:47:22;0.70;;;0.70;;
39698;SDS011;25372;50.582;12.250;2023-10-31T08:57:45;0.50;;;0.50;;
39698;SDS011;25372;50.582;12.250;2023-10-31T09:08:05;0.40;;;0.40;;
39698;SDS011;25372;50.582;12.250;2023-10-31T09:18:28;0.40;;;0.40;;
39698;SDS011;25372;50.582;12.250;2023-10-31T09:28:49;0.30;;;0.30;;
39698;SDS011;25372;50.582;12.250;2023-10-31T09:39:11;0.57;;;0.57;;
39698;SDS011;25372;50.582;12.250;2023-10-31T09:49:32;0.50;;;0.50;;
39698;SDS011;25372;50.582;12.250;2023-10-31T09:59:54;0.60;;;0.60;;
39698;SDS011;25372;50.582;12.250;2023-10-31T10:10:15;0.65;;;0.50;;
39698;SDS011;25372;50.582;12.250;2023-10-31T10:20:38;0.60;;;0.50;;
39698;SDS011;25372;50.582;12.250;2023-10-31T10:31:14;3.30;;;0.82;;
39698;SDS011;25372;50.582;12.250;2023-10-31T10:41:37;0.50;;;0.50;;
39698;SDS011;25372;50.582;12.250;2023-10-31T10:52:01;0.60;;;0.60;;
39698;SDS011;25372;50.582;12.250;2023-10-31T11:02:36;0.73;;;0.60;;
39698;SDS011;25372;50.582;12.250;2023-10-31T11:12:57;0.38;;;0.38;;
39698;SDS011;25372;50.582;12.250;2023-10-31T11:23:19;0.43;;;0.43;;
39698;SDS011;25372;50.582;12.250;2023-10-31T11:33:40;0.50;;;0.50;;
39698;SDS011;25372;50.582;12.250;2023-10-31T11:44:04;0.47;;;0.47;;
39698;SDS011;25372;50.582;12.250;2023-10-31T11:54:25;0.30;;;0.30;;
39698;SDS011;25372;50.582;12.250;2023-10-31T12:04:48;0.32;;;0.32;;
39698;SDS011;25372;50.582;12.250;2023-10-31T12:15:09;2.15;;;0.50;;
39698;SDS011;25372;50.582;12.250;2023-10-31T12:25:32;0.40;;;0.40;;
39698;SDS011;25372;50.582;12.250;2023-10-31T12:35:58;0.47;;;0.47;;
39698;SDS011;25372;50.582;12.250;2023-10-31T12:46:27;0.52;;;0.52;;
39698;SDS011;25372;50.582;12.250;2023-10-31T12:56:49;0.55;;;0.55;;
39698;SDS011;25372;50.582;12.250;2023-10-31T13:07:12;0.40;;;0.40;;
39698;SDS011;25372;50.582;12.250;2023-10-31T13:17:33;0.73;;;0.50;;
39698;SDS011;25372;50.582;12.250;2023-10-31T13:27:58;0.50;;;0.50;;
39698;SDS011;25372;50.582;12.250;2023-10-31T13:38:19;0.60;;;0.50;;
39698;SDS011;25372;50.582;12.250;2023-10-31T13:48:41;2.42;;;0.60;;
39698;SDS011;25372;50.582;12.250;2023-10-31T13:59:02;0.73;;;0.60;;
39698;SDS011;25372;50.582;12.250;2023-10-31T14:09:24;0.80;;;0.60;;
39698;SDS011;25372;50.582;12.250;2023-10-31T14:19:45;0.40;;;0.40;;
39698;SDS011;25372;50.582;12.250;2023-10-31T14:30:08;3.63;;;0.88;;
39698;SDS011;25372;50.582;12.250;2023-10-31T14:40:29;0.45;;;0.45;;
39698;SDS011;25372;50.582;12.250;2023-10-31T14:50:52;0.50;;;0.50;;
39698;SDS011;25372;50.582;12.250;2023-10-31T15:01:13;0.70;;;0.70;;
39698;SDS011;25372;50.582;12.250;2023-10-31T15:11:36;0.55;;;0.55;;
39698;SDS011;25372;50.582;12.250;2023-10-31T15:21:57;0.50;;;0.50;;
39698;SDS011;25372;50.582;12.250;2023-10-31T15:32:20;0.45;;;0.45;;
39698;SDS011;25372;50.582;12.250;2023-10-31T15:42:40;2.50;;;1.00;;
39698;SDS011;25372;50.582;12.250;2023-10-31T15:53:02;0.50;;;0.50;;
39698;SDS011;25372;50.582;12.250;2023-10-31T16:03:23;1.13;;;0.88;;
39698;SDS011;25372;50.582;12.250;2023-10-31T16:13:45;1.50;;;0.95;;
39698;SDS011;25372;50.582;12.250;2023-10-31T16:24:06;1.88;;;1.00;;
39698;SDS011;25372;50.582;12.250;2023-10-31T16:34:28;6.13;;;1.40;;
39698;SDS011;25372;50.582;12.250;2023-10-31T16:44:49;1.40;;;0.95;;
39698;SDS011;25372;50.582;12.250;2023-10-31T16:55:11;0.45;;;0.45;;
39698;SDS011;25372;50.582;12.250;2023-10-31T17:05:32;1.10;;;0.68;;
39698;SDS011;25372;50.582;12.250;2023-10-31T17:15:54;2.13;;;1.02;;
39698;SDS011;25372;50.582;12.250;2023-10-31T17:26:15;0.60;;;0.60;;
39698;SDS011;25372;50.582;12.250;2023-10-31T17:36:37;0.90;;;0.90;;
39698;SDS011;25372;50.582;12.250;2023-10-31T17:46:59;2.70;;;0.90;;
39698;SDS011;25372;50.582;12.250;2023-10-31T17:57:23;1.63;;;1.30;;
39698;SDS011;25372;50.582;12.250;2023-10-31T18:07:44;3.25;;;1.05;;
39698;SDS011;25372;50.582;12.250;2023-10-31T18:18:06;1.38;;;0.70;;
39698;SDS011;25372;50.582;12.250;2023-10-31T18:28:27;1.08;;;0.98;;
39698;SDS011;25372;50.582;12.250;2023-10-31T18:38:50;1.05;;;1.02;;
39698;SDS011;25372;50.582;12.250;2023-10-31T18:49:11;3.28;;;1.20;;
39698;SDS011;25372;50.582;12.250;2023-10-31T18:59:33;1.95;;;1.25;;
39698;SDS011;25372;50.582;12.250;2023-10-31T19:09:54;0.77;;;0.77;;
39698;SDS011;25372;50.582;12.250;2023-10-31T19:20:16;3.40;;;1.30;;
39698;SDS011;25372;50.582;12.250;2023-10-31T19:30:36;1.02;;;1.02;;
39698;SDS011;25372;50.582;12.250;2023-10-31T19:41:00;0.60;;;0.60;;
39698;SDS011;25372;50.582;12.250;2023-10-31T19:51:21;0.77;;;0.77;;
39698;SDS011;25372;50.582;12.250;2023-10-31T20:01:44;0.98;;;0.80;;
39698;SDS011;25372;50.582;12.250;2023-10-31T20:12:05;0.82;;;0.77;;
39698;SDS011;25372;50.582;12.250;2023-10-31T20:22:28;3.78;;;0.77;;
39698;SDS011;25372;50.582;12.250;2023-10-31T20:32:49;0.60;;;0.60;;
39698;SDS011;25372;50.582;12.250;2023-10-31T20:43:11;0.70;;;0.70;;
39698;SDS011;25372;50.582;12.250;2023-10-31T20:53:32;1.10;;;1.00;;
39698;SDS011;25372;50.582;12.250;2023-10-31T21:03:54;0.93;;;0.75;;
39698;SDS011;25372;50.582;12.250;2023-10-31T21:14:15;1.85;;;0.68;;
39698;SDS011;25372;50.582;12.250;2023-10-31T21:24:37;0.68;;;0.68;;
39698;SDS011;25372;50.582;12.250;2023-10-31T21:34:59;0.63;;;0.63;;
39698;SDS011;25372;50.582;12.250;2023-10-31T21:45:21;0.70;;;0.70;;
39698;SDS011;25372;50.582;12.250;2023-10-31T21:55:42;2.38;;;0.60;;
39698;SDS011;25372;50.582;12.250;2023-10-31T22:06:04;1.05;;;0.95;;
39698;SDS011;25372;50.582;12.250;2023-10-31T22:16:25;0.43;;;0.43;;
39698;SDS011;25372;50.582;12.250;2023-10-31T22:26:52;0.73;;;0.73;;
39698;SDS011;25372;50.582;12.250;2023-10-31T22:37:13;1.63;;;0.93;;
39698;SDS011;25372;50.582;12.250;2023-10-31T22:47:35;1.38;;;0.88;;
39698;SDS011;25372;50.582;12.250;2023-10-31T22:57:58;3.63;;;1.10;;
39698;SDS011;25372;50.582;12.250;2023-10-31T23:08:20;0.65;;;0.65;;
39698;SDS011;25372;50.582;12.250;2023-10-31T23:18:41;0.77;;;0.77;;
39698;SDS011;25372;50.582;12.250;2023-10-31T23:29:03;0.70;;;0.70;;
39698;SDS011;25372;50.582;12.250;2023-10-31T23:39:24;1.13;;;0.80;;
39698;SDS011;25372;50.582;12.250;2023-10-31T23:49:46;1.20;;;1.10;;
